Time;durP1;ratioP1;P1;durP2;ratioP2;P2;SDS_P1;SDS_P2;PMS_P1;PMS_P2;Temp;Humidity;BMP_temperature;BMP_pressure;BME280_temperature;BME280_humidity;BME280_pressure;Samples;Min_cycle;Max_cycle;Signal;HPM_P1;HPM_P2
2021/06/24 00:00:51;;;;;;;10.20;3.55;;;18.60;96.20;;;;;;5052051;28;20140;-73
2021/06/24 00:03:16;;;;;;;12.80;3.88;;;18.60;96.30;;;;;;5034287;28;20086;-72
2021/06/24 00:05:43;;;;;;;15.23;3.90;;;18.60;96.40;;;;;;5035876;28;20013;-72
2021/06/24 00:08:09;;;;;;;12.43;3.45;;;18.60;96.30;;;;;;5051847;28;20033;-73
2021/06/24 00:10:38;;;;;;;8.27;3.08;;;18.50;96.30;;;;;;5051619;28;20073;-72
2021/06/24 00:13:04;;;;;;;;;;;18.50;96.50;;;;;;5051829;28;20039;-73
2021/06/24 00:15:30;;;;;;;10.13;4.07;;;18.60;96.60;;;;;;5051754;28;19974;-73
2021/06/24 00:17:56;;;;;;;10.98;4.18;;;18.50;96.50;;;;;;5035405;28;20037;-72
2021/06/24 00:20:22;;;;;;;10.85;3.85;;;18.60;96.50;;;;;;5051461;28;20112;-72
2021/06/24 00:22:47;;;;;;;8.00;3.03;;;18.60;96.60;;;;;;5033470;28;20109;-71
2021/06/24 00:25:13;;;;;;;14.52;4.18;;;18.50;96.40;;;;;;5051671;28;20124;-72
2021/06/24 00:27:39;;;;;;;14.18;3.75;;;18.50;96.50;;;;;;5051662;28;20040;-72
2021/06/24 00:30:06;;;;;;;11.10;4.03;;;18.60;96.40;;;;;;5051583;28;20104;-73
2021/06/24 00:32:32;;;;;;;10.57;3.25;;;18.50;96.50;;;;;;5052880;28;20475;-73
2021/06/24 00:35:01;;;;;;;13.13;3.42;;;18.60;96.50;;;;;;5051200;28;20103;-73
2021/06/24 00:37:28;;;;;;;10.93;3.67;;;18.50;96.40;;;;;;5051515;28;20041;-73
2021/06/24 00:39:54;;;;;;;8.93;3.42;;;18.50;96.60;;;;;;5051197;28;20076;-72
2021/06/24 00:42:22;;;;;;;17.38;3.85;;;18.50;96.50;;;;;;5051457;28;20052;-74
2021/06/24 00:44:48;;;;;;;12.68;3.97;;;18.50;96.40;;;;;;5052801;28;20028;-72
2021/06/24 00:47:13;;;;;;;9.68;3.85;;;18.50;96.40;;;;;;5051323;28;20124;-73
2021/06/24 00:49:39;;;;;;;17.80;4.25;;;18.50;96.40;;;;;;5050970;28;20037;-73
2021/06/24 00:52:05;;;;;;;10.23;3.97;;;18.40;96.50;;;;;;5050369;28;20376;-73
2021/06/24 00:54:30;;;;;;;12.23;3.55;;;18.40;96.50;;;;;;5051245;28;20037;-74
2021/06/24 00:56:56;;;;;;;11.63;3.30;;;18.30;96.60;;;;;;5052959;28;20033;-73
2021/06/24 00:59:22;;;;;;;14.85;3.63;;;18.30;96.80;;;;;;5050835;28;20033;-73
2021/06/24 01:01:48;;;;;;;8.35;3.38;;;18.30;96.60;;;;;;5051067;28;20041;-73
2021/06/24 01:04:21;;;;;;;13.18;3.22;;;18.30;96.60;;;;;;5050963;28;20037;-73
2021/06/24 01:06:51;;;;;;;8.38;3.35;;;18.30;96.80;;;;;;5049932;28;20047;-73
2021/06/24 01:09:17;;;;;;;18.08;3.65;;;18.30;96.80;;;;;;5050782;28;20390;-73
2021/06/24 01:11:43;;;;;;;10.25;3.85;;;18.30;96.80;;;;;;5052223;28;20082;-73
2021/06/24 01:14:09;;;;;;;8.90;3.08;;;18.40;96.70;;;;;;5050333;28;20037;-73
2021/06/24 01:16:36;;;;;;;12.35;3.40;;;18.40;96.70;;;;;;5050600;28;20033;-72
2021/06/24 01:19:01;;;;;;;13.55;3.47;;;18.30;96.70;;;;;;5050683;28;20462;-72
2021/06/24 01:21:27;;;;;;;17.77;4.00;;;18.30;96.70;;;;;;5050576;28;20383;-73
2021/06/24 01:23:53;;;;;;;9.63;2.60;;;18.30;96.60;;;;;;5051993;28;20237;-73
2021/06/24 01:26:19;;;;;;;12.23;4.28;;;18.30;96.70;;;;;;5050783;28;20358;-73
2021/06/24 01:28:45;;;;;;;10.35;3.78;;;18.30;96.50;;;;;;5050366;28;20114;-72
2021/06/24 01:31:11;;;;;;;17.35;4.43;;;18.30;96.70;;;;;;5050408;28;20037;-72
2021/06/24 01:33:37;;;;;;;17.90;3.42;;;18.20;96.70;;;;;;5050493;28;20525;-73
2021/06/24 01:36:05;;;;;;;13.63;4.22;;;18.30;96.60;;;;;;5041660;28;20025;-72
2021/06/24 01:38:32;;;;;;;15.10;4.38;;;18.20;96.70;;;;;;5031447;28;20042;-72
2021/06/24 01:40:58;;;;;;;10.13;3.78;;;18.20;96.70;;;;;;5030243;28;20463;-72
2021/06/24 01:43:24;;;;;;;12.73;3.97;;;18.30;96.90;;;;;;5030146;28;20045;-72
2021/06/24 01:45:53;;;;;;;11.05;4.00;;;18.20;96.80;;;;;;5030373;28;20207;-73
2021/06/24 01:48:20;;;;;;;9.50;4.03;;;18.20;96.80;;;;;;5030509;28;20094;-72
2021/06/24 01:50:47;;;;;;;10.05;4.05;;;18.20;96.90;;;;;;5031762;28;20044;-72
2021/06/24 01:53:13;;;;;;;21.92;4.72;;;18.20;96.90;;;;;;5012801;28;20034;-72
2021/06/24 01:55:40;;;;;;;12.85;4.30;;;18.30;96.90;;;;;;5030274;28;20034;-73
2021/06/24 01:58:07;;;;;;;9.50;3.58;;;18.30;96.90;;;;;;5029910;28;20030;-72
2021/06/24 02:00:34;;;;;;;12.25;3.90;;;18.30;96.90;;;;;;5029835;28;20041;-72
2021/06/24 02:03:00;;;;;;;11.90;4.13;;;18.30;96.70;;;;;;5031418;28;20082;-74
2021/06/24 02:05:25;;;;;;;8.52;4.30;;;18.30;96.80;;;;;;5030003;28;20111;-73
2021/06/24 02:07:51;;;;;;;11.75;3.95;;;18.20;96.70;;;;;;5030120;28;20128;-72
2021/06/24 02:10:17;;;;;;;16.60;4.72;;;18.20;96.80;;;;;;5030000;28;20168;-73
2021/06/24 02:12:43;;;;;;;9.27;4.00;;;18.20;96.80;;;;;;5029818;28;20038;-73
2021/06/24 02:15:11;;;;;;;11.85;4.50;;;18.20;96.90;;;;;;5029633;28;20022;-73
2021/06/24 02:17:37;;;;;;;17.55;4.57;;;18.20;96.80;;;;;;5030909;28;20533;-73
2021/06/24 02:20:08;;;;;;;20.27;4.65;;;18.20;96.80;;;;;;5011796;28;20183;-72
2021/06/24 02:22:34;;;;;;;13.23;4.60;;;18.20;96.90;;;;;;5029444;28;20037;-72
2021/06/24 02:25:00;;;;;;;11.57;3.83;;;18.20;96.90;;;;;;5029618;28;20037;-74
2021/06/24 02:27:26;;;;;;;16.38;5.15;;;18.10;96.90;;;;;;5029197;28;20069;-72
2021/06/24 02:29:52;;;;;;;7.47;3.88;;;18.10;97.00;;;;;;5031268;28;20107;-73
2021/06/24 02:32:17;;;;;;;9.27;4.35;;;18.10;97.00;;;;;;5029379;28;20044;-74
2021/06/24 02:34:45;;;;;;;11.32;4.63;;;18.10;97.10;;;;;;5012203;28;20037;-73
2021/06/24 02:37:10;;;;;;;10.75;4.50;;;18.00;97.00;;;;;;5029865;28;20577;-72
2021/06/24 02:39:36;;;;;;;11.00;3.72;;;18.10;97.00;;;;;;5011767;28;20059;-73
2021/06/24 02:42:02;;;;;;;11.85;3.85;;;18.10;97.20;;;;;;5030913;28;20095;-73
2021/06/24 02:44:28;;;;;;;8.13;3.72;;;18.10;97.10;;;;;;5029935;28;20034;-73
2021/06/24 02:46:54;;;;;;;9.15;4.70;;;18.00;97.10;;;;;;5029389;28;20168;-73
2021/06/24 02:49:19;;;;;;;10.43;4.10;;;18.00;97.20;;;;;;5029387;28;20582;-73
2021/06/24 02:51:48;;;;;;;9.60;4.05;;;18.00;97.30;;;;;;5029239;28;20029;-73
2021/06/24 02:54:15;;;;;;;18.52;4.47;;;18.00;97.30;;;;;;5011951;28;20385;-73
2021/06/24 02:56:42;;;;;;;12.70;4.23;;;18.00;97.30;;;;;;5030946;28;20040;-73
2021/06/24 02:59:08;;;;;;;13.07;4.97;;;17.90;97.40;;;;;;5029099;28;20061;-72
2021/06/24 03:01:37;;;;;;;11.48;4.18;;;18.00;97.40;;;;;;5028977;28;20715;-74
2021/06/24 03:04:07;;;;;;;14.30;4.65;;;18.00;97.60;;;;;;5011521;28;20091;-74
2021/06/24 03:06:36;;;;;;;11.38;4.32;;;17.90;97.50;;;;;;5011571;28;20420;-73
2021/06/24 03:09:06;;;;;;;14.65;4.18;;;17.80;97.50;;;;;;5030644;28;20543;-73
2021/06/24 03:11:32;;;;;;;13.23;4.45;;;17.90;97.50;;;;;;5029811;28;20413;-72
2021/06/24 03:13:58;;;;;;;9.20;3.95;;;18.00;97.50;;;;;;5011353;28;20037;-72
2021/06/24 03:16:24;;;;;;;13.40;4.30;;;18.00;97.50;;;;;;5028780;28;20044;-72
2021/06/24 03:18:49;;;;;;;11.13;4.55;;;18.10;97.50;;;;;;5028994;28;20045;-73
2021/06/24 03:21:18;;;;;;;10.52;4.43;;;18.00;97.50;;;;;;5029452;28;20021;-72
2021/06/24 03:23:44;;;;;;;16.50;4.40;;;18.00;97.50;;;;;;5012693;28;20076;-74
2021/06/24 03:26:10;;;;;;;8.68;4.57;;;18.00;97.50;;;;;;5028799;28;20041;-73
2021/06/24 03:28:35;;;;;;;8.55;3.70;;;17.90;97.40;;;;;;5028762;28;20189;-73
2021/06/24 03:31:01;;;;;;;11.63;4.97;;;18.00;97.50;;;;;;5030998;28;20052;-72
2021/06/24 03:33:27;;;;;;;9.75;4.47;;;18.00;97.60;;;;;;5032662;28;20036;-74
2021/06/24 03:35:52;;;;;;;14.35;4.68;;;17.90;97.50;;;;;;5017122;28;20040;-72
2021/06/24 03:38:18;;;;;;;11.80;4.43;;;17.90;97.70;;;;;;5032515;28;20051;-72
2021/06/24 03:40:44;;;;;;;18.75;4.60;;;17.90;97.70;;;;;;5032295;28;20422;-72
2021/06/24 03:43:10;;;;;;;10.60;4.60;;;17.90;97.60;;;;;;5015090;28;20054;-73
2021/06/24 03:45:37;;;;;;;13.50;4.50;;;17.90;97.60;;;;;;5032431;28;20470;-71
2021/06/24 03:48:04;;;;;;;12.50;4.28;;;17.90;97.70;;;;;;5014562;28;20037;-74
2021/06/24 03:50:30;;;;;;;11.23;4.90;;;17.90;97.70;;;;;;5033745;28;20017;-72
2021/06/24 03:52:58;;;;;;;9.90;3.72;;;17.90;97.80;;;;;;5032362;28;20042;-72
2021/06/24 03:58:11;;;;;;;12.95;4.88;;;18.00;97.70;;;;;;5032076;28;20481;-74
2021/06/24 04:00:40;;;;;;;8.82;4.82;;;17.90;97.70;;;;;;5032108;28;20039;-72
2021/06/24 04:03:06;;;;;;;13.75;4.57;;;17.80;97.90;;;;;;5032080;28;20454;-73
2021/06/24 04:05:31;;;;;;;11.45;5.07;;;17.80;97.90;;;;;;5016369;28;20033;-71
2021/06/24 04:08:01;;;;;;;11.98;4.75;;;17.80;97.90;;;;;;5032127;28;20029;-72
2021/06/24 04:10:30;;;;;;;14.75;4.53;;;17.80;97.90;;;;;;5032037;28;20132;-74
2021/06/24 04:12:56;;;;;;;9.60;4.55;;;17.80;97.90;;;;;;5032195;28;20042;-72
2021/06/24 04:15:23;;;;;;;10.70;4.43;;;17.80;98.00;;;;;;5031893;28;20025;-71
2021/06/24 04:17:50;;;;;;;14.13;4.50;;;17.80;98.00;;;;;;5033308;28;20014;-73
2021/06/24 04:20:16;;;;;;;13.15;4.82;;;17.90;98.00;;;;;;5031891;28;20045;-72
2021/06/24 04:22:42;;;;;;;9.57;5.03;;;17.80;98.00;;;;;;5032013;28;20039;-72
2021/06/24 04:25:09;;;;;;;12.40;5.32;;;17.80;97.90;;;;;;5031785;28;20446;-73
2021/06/24 04:27:34;;;;;;;14.85;5.00;;;17.80;98.00;;;;;;5031570;28;20618;-72
2021/06/24 04:30:00;;;;;;;12.95;4.95;;;17.70;98.10;;;;;;5033234;28;20459;-72
2021/06/24 04:32:26;;;;;;;15.00;5.00;;;17.70;98.10;;;;;;5031355;28;20399;-73
2021/06/24 04:34:54;;;;;;;11.77;4.97;;;17.70;98.10;;;;;;5031427;28;20033;-73
2021/06/24 04:37:20;;;;;;;12.50;4.97;;;17.80;98.10;;;;;;5031352;28;20120;-73
2021/06/24 04:39:46;;;;;;;11.70;5.07;;;17.80;98.10;;;;;;5013555;28;20175;-73
2021/06/24 04:42:12;;;;;;;10.45;4.75;;;17.80;98.20;;;;;;5031246;28;20413;-71
2021/06/24 04:44:39;;;;;;;11.70;4.47;;;17.80;98.00;;;;;;5032752;28;20033;-72
2021/06/24 04:47:04;;;;;;;15.98;5.63;;;17.80;98.00;;;;;;5030873;28;20042;-76
2021/06/24 04:49:30;;;;;;;13.93;4.80;;;17.80;98.10;;;;;;5031590;28;20183;-73
2021/06/24 04:51:56;;;;;;;11.07;4.70;;;17.80;98.10;;;;;;5031373;28;20038;-73
2021/06/24 04:54:21;;;;;;;12.77;4.72;;;17.80;98.10;;;;;;5031157;28;20021;-75
2021/06/24 04:56:47;;;;;;;14.50;5.38;;;17.80;98.10;;;;;;5032671;28;20414;-74
2021/06/24 04:59:13;;;;;;;14.50;5.35;;;17.80;98.20;;;;;;5031135;28;20045;-83
2021/06/24 05:01:39;;;;;;;16.45;5.10;;;17.80;98.10;;;;;;5030602;28;20121;-75
2021/06/24 05:04:04;;;;;;;11.93;5.07;;;17.80;98.50;;;;;;5013591;28;20112;-75
2021/06/24 05:06:30;;;;;;;14.48;4.60;;;17.80;98.20;;;;;;5031011;28;20065;-74
2021/06/24 05:08:56;;;;;;;8.43;4.65;;;17.80;98.20;;;;;;5032327;28;20029;-75
2021/06/24 05:11:21;;;;;;;14.48;5.60;;;17.80;98.10;;;;;;5030400;28;20094;-74
2021/06/24 05:13:47;;;;;;;13.55;5.60;;;17.80;98.10;;;;;;5030760;28;20057;-75
2021/06/24 05:16:13;;;;;;;13.55;5.13;;;17.80;98.10;;;;;;5023011;28;20117;-75
2021/06/24 05:18:40;;;;;;;13.73;4.53;;;17.80;98.10;;;;;;5010947;28;20072;-75
2021/06/24 05:21:06;;;;;;;17.83;5.82;;;17.80;98.30;;;;;;5011102;28;20026;-74
2021/06/24 05:23:32;;;;;;;11.95;5.10;;;17.80;98.30;;;;;;5012320;28;20109;-75
2021/06/24 05:25:57;;;;;;;14.73;5.40;;;17.80;98.20;;;;;;5010675;28;20053;-76
2021/06/24 05:28:23;;;;;;;10.73;4.97;;;17.90;98.30;;;;;;4993308;28;20503;-76
2021/06/24 05:30:49;;;;;;;15.40;5.18;;;17.90;98.30;;;;;;5011567;28;20032;-75
2021/06/24 05:33:16;;;;;;;13.85;5.25;;;17.90;98.20;;;;;;5012046;28;20026;-75
2021/06/24 05:35:42;;;;;;;12.07;6.43;;;17.90;98.20;;;;;;5014033;28;20095;-73
2021/06/24 05:38:11;;;;;;;15.90;5.80;;;18.00;98.30;;;;;;5010716;28;20099;-76
2021/06/24 05:40:40;;;;;;;13.18;5.72;;;17.90;98.30;;;;;;5010786;28;20057;-75
2021/06/24 05:43:06;;;;;;;15.38;6.85;;;18.00;98.30;;;;;;5011241;28;20025;-72
2021/06/24 05:45:31;;;;;;;10.98;5.90;;;18.10;98.40;;;;;;5010179;28;20026;-73
2021/06/24 05:47:58;;;;;;;14.88;5.50;;;18.10;98.50;;;;;;5011752;28;20356;-73
2021/06/24 05:50:25;;;;;;;22.70;6.70;;;18.10;98.30;;;;;;5010635;28;20042;-74
2021/06/24 05:52:53;;;;;;;17.40;5.07;;;18.20;98.20;;;;;;4992423;28;20042;-76
2021/06/24 05:55:19;;;;;;;13.88;5.10;;;18.20;98.30;;;;;;5010056;28;20411;-73
2021/06/24 05:57:45;;;;;;;14.32;5.53;;;18.30;98.20;;;;;;4992597;28;20022;-73
2021/06/24 06:00:13;;;;;;;10.57;5.20;;;18.30;98.10;;;;;;4992868;28;20451;-72
2021/06/24 06:02:39;;;;;;;11.07;5.28;;;18.40;98.10;;;;;;5011907;28;20433;-72
2021/06/24 06:05:06;;;;;;;19.05;5.47;;;18.40;98.00;;;;;;5010381;28;20034;-72
2021/06/24 06:07:31;;;;;;;14.43;5.72;;;18.50;98.10;;;;;;5009910;28;20148;-72
2021/06/24 06:09:57;;;;;;;16.58;5.95;;;18.60;98.00;;;;;;5010532;28;20037;-72
2021/06/24 06:12:23;;;;;;;13.88;5.18;;;18.50;97.90;;;;;;4992409;28;20045;-72
2021/06/24 06:14:48;;;;;;;9.48;5.22;;;18.60;97.90;;;;;;5011515;28;20022;-73
2021/06/24 06:17:14;;;;;;;14.23;5.80;;;18.50;97.90;;;;;;5009971;28;20034;-73
2021/06/24 06:19:40;;;;;;;11.90;5.40;;;18.60;97.90;;;;;;5009587;28;20294;-73
2021/06/24 06:22:05;;;;;;;16.40;5.95;;;18.60;97.90;;;;;;5009847;28;20030;-74
2021/06/24 06:24:31;;;;;;;15.50;6.05;;;18.60;98.10;;;;;;5010158;28;20149;-74
2021/06/24 06:26:56;;;;;;;18.35;5.80;;;18.60;97.90;;;;;;5011235;28;20030;-73
2021/06/24 06:29:22;;;;;;;13.10;5.07;;;18.60;97.90;;;;;;5009851;28;20504;-71
2021/06/24 06:31:48;;;;;;;18.38;8.05;;;18.60;97.90;;;;;;5009777;28;20045;-73
2021/06/24 06:34:13;;;;;;;16.80;8.85;;;18.60;97.80;;;;;;5009901;28;20046;-72
2021/06/24 06:36:39;;;;;;;17.58;7.80;;;18.60;97.90;;;;;;5009732;28;20440;-72
2021/06/24 06:39:05;;;;;;;17.00;8.40;;;18.60;97.90;;;;;;5009679;28;20064;-72
2021/06/24 06:41:31;;;;;;;18.73;7.40;;;18.60;97.80;;;;;;5011501;28;20425;-73
2021/06/24 06:43:56;;;;;;;13.07;5.32;;;18.60;97.80;;;;;;5009873;28;20121;-73
2021/06/24 06:46:22;;;;;;;12.00;6.18;;;18.60;97.80;;;;;;5009507;28;20624;-73
2021/06/24 06:48:47;;;;;;;16.90;5.65;;;18.70;97.80;;;;;;5009416;28;20318;-73
2021/06/24 06:51:13;;;;;;;14.95;7.18;;;18.60;97.90;;;;;;5009832;28;20439;-72
2021/06/24 06:53:39;;;;;;;13.70;5.60;;;18.70;97.90;;;;;;5011268;28;20029;-72
2021/06/24 06:56:05;;;;;;;12.95;6.28;;;18.70;97.90;;;;;;5009710;28;20037;-73
2021/06/24 06:58:31;;;;;;;15.30;6.18;;;18.70;98.00;;;;;;5009336;28;20038;-74
2021/06/24 07:00:56;;;;;;;14.02;5.55;;;18.70;98.00;;;;;;5009333;28;20181;-72
2021/06/24 07:03:22;;;;;;;14.82;5.53;;;18.70;98.00;;;;;;5009713;28;20966;-73
2021/06/24 07:05:48;;;;;;;15.48;5.90;;;18.80;97.90;;;;;;5012809;28;20022;-72
2021/06/24 07:08:14;;;;;;;15.25;5.18;;;18.70;97.80;;;;;;4995891;28;20108;-72
2021/06/24 07:10:39;;;;;;;14.73;5.97;;;18.60;97.90;;;;;;5013040;28;20121;-72
2021/06/24 07:13:05;;;;;;;13.00;6.50;;;18.70;97.90;;;;;;5013266;28;20120;-72
2021/06/24 07:15:31;;;;;;;9.13;5.53;;;18.60;97.90;;;;;;5013217;28;20104;-73
2021/06/24 07:17:56;;;;;;;13.82;6.05;;;18.70;98.00;;;;;;5015152;28;20025;-72
2021/06/24 07:20:22;;;;;;;13.00;5.60;;;18.70;98.00;;;;;;5013135;28;20030;-72
2021/06/24 07:22:48;;;;;;;12.35;6.63;;;18.70;98.10;;;;;;5013152;28;20030;-73
2021/06/24 07:25:16;;;;;;;16.42;7.22;;;18.70;98.10;;;;;;5012894;28;20034;-73
2021/06/24 07:27:42;;;;;;;12.85;6.82;;;18.70;98.00;;;;;;5012582;28;20046;-72
2021/06/24 07:30:08;;;;;;;15.02;7.85;;;18.70;98.00;;;;;;5012871;28;20022;-72
2021/06/24 07:32:34;;;;;;;13.07;6.28;;;18.80;98.00;;;;;;4997223;28;20026;-73
2021/06/24 07:35:00;;;;;;;19.25;6.18;;;18.80;98.10;;;;;;5013250;28;20456;-73
2021/06/24 07:37:25;;;;;;;14.45;5.18;;;18.80;98.00;;;;;;5012938;28;20477;-73
2021/06/24 07:39:51;;;;;;;14.60;6.60;;;18.80;98.00;;;;;;5013065;28;20369;-71
2021/06/24 07:42:19;;;;;;;9.77;5.97;;;18.90;98.00;;;;;;5012745;28;20381;-72
2021/06/24 07:44:45;;;;;;;;;;;18.90;98.00;;;;;;5014917;28;20042;-72
2021/06/24 07:47:11;;;;;;;14.55;6.13;;;18.90;97.90;;;;;;5012767;28;19909;-72
2021/06/24 07:49:36;;;;;;;12.95;6.35;;;18.90;98.00;;;;;;4995470;28;20068;-72
2021/06/24 07:52:02;;;;;;;8.95;5.68;;;18.90;97.90;;;;;;4995075;28;20041;-71
2021/06/24 07:54:28;;;;;;;14.00;6.30;;;18.90;98.00;;;;;;4995153;28;20036;-72
2021/06/24 07:56:55;;;;;;;14.52;6.18;;;18.90;98.00;;;;;;4996948;28;20026;-74
2021/06/24 07:59:21;;;;;;;20.67;6.63;;;18.90;98.00;;;;;;5012685;28;20241;-71
2021/06/24 08:01:46;;;;;;;13.27;5.95;;;19.00;98.00;;;;;;5012424;28;20125;-72
2021/06/24 08:04:12;;;;;;;18.05;6.32;;;19.00;97.90;;;;;;5012015;28;20045;-71
2021/06/24 08:06:38;;;;;;;14.45;6.20;;;19.00;98.00;;;;;;5012370;28;20041;-72
2021/06/24 08:09:06;;;;;;;11.88;5.93;;;19.00;98.00;;;;;;5012421;28;20184;-72
2021/06/24 08:11:31;;;;;;;15.05;7.78;;;19.10;97.90;;;;;;5013712;28;20049;-72
2021/06/24 08:13:57;;;;;;;19.85;6.90;;;19.20;97.90;;;;;;5012382;28;20128;-72
2021/06/24 08:16:25;;;;;;;14.73;6.63;;;19.20;97.80;;;;;;5011890;28;20034;-72
2021/06/24 08:18:51;;;;;;;18.15;6.40;;;19.20;97.80;;;;;;5011741;28;20041;-72
2021/06/24 08:21:16;;;;;;;17.90;5.50;;;19.30;97.90;;;;;;5011869;28;20033;-72
2021/06/24 08:23:42;;;;;;;10.30;6.43;;;19.30;97.80;;;;;;5013700;28;20363;-72
2021/06/24 08:26:08;;;;;;;14.40;5.95;;;19.20;97.70;;;;;;5011837;28;20096;-71
2021/06/24 08:28:33;;;;;;;15.07;7.13;;;19.20;98.00;;;;;;5011443;28;20053;-71
2021/06/24 08:31:00;;;;;;;13.77;6.03;;;19.20;97.90;;;;;;5011852;28;20496;-72
2021/06/24 08:33:26;;;;;;;10.40;5.18;;;19.20;97.90;;;;;;5011860;28;20061;-72
2021/06/24 08:35:52;;;;;;;12.45;5.50;;;19.20;98.00;;;;;;5013408;28;20080;-72
2021/06/24 08:38:18;;;;;;;14.32;6.20;;;19.40;97.80;;;;;;5011548;28;20042;-72
2021/06/24 08:40:44;;;;;;;21.98;6.38;;;19.50;97.80;;;;;;5011566;28;20065;-71
2021/06/24 08:43:10;;;;;;;10.98;6.00;;;19.50;97.60;;;;;;5011551;28;20042;-72
2021/06/24 08:45:38;;;;;;;14.50;5.50;;;19.60;97.60;;;;;;5011237;28;20348;-72
2021/06/24 08:48:14;;;;;;;11.32;5.40;;;19.70;97.30;;;;;;5011419;28;20029;-71
2021/06/24 08:50:50;;;;;;;13.98;5.65;;;19.80;97.10;;;;;;5013292;28;20010;-73
2021/06/24 08:53:20;;;;;;;18.73;5.13;;;19.90;97.00;;;;;;4993654;28;20042;-72
2021/06/24 08:55:51;;;;;;;12.82;5.03;;;20.00;96.90;;;;;;5011434;28;20097;-71
2021/06/24 08:58:17;;;;;;;16.20;5.50;;;20.10;96.70;;;;;;5011409;28;20103;-71
2021/06/24 09:00:42;;;;;;;8.70;4.50;;;20.20;96.70;;;;;;5011179;28;20451;-72
2021/06/24 09:03:19;;;;;;;11.32;5.10;;;20.20;96.40;;;;;;5011375;28;20038;-72
2021/06/24 09:05:52;;;;;;;16.30;7.70;;;20.20;96.10;;;;;;5012788;28;20026;-72
2021/06/24 09:08:33;;;;;;;10.20;4.68;;;20.40;96.10;;;;;;5011056;28;20545;-71
2021/06/24 09:11:16;;;;;;;22.35;10.32;;;20.40;95.70;;;;;;5011043;28;20088;-72
2021/06/24 09:13:42;;;;;;;15.23;4.95;;;20.60;95.70;;;;;;5010928;28;20121;-70
2021/06/24 09:16:19;;;;;;;10.73;4.50;;;20.70;95.60;;;;;;5011065;28;20034;-71
2021/06/24 09:18:45;;;;;;;18.45;5.40;;;20.80;95.10;;;;;;4993151;28;20053;-71
2021/06/24 09:21:22;;;;;;;13.73;5.22;;;20.70;95.10;;;;;;5010982;28;20057;-72
2021/06/24 09:23:50;;;;;;;19.77;8.07;;;20.90;94.90;;;;;;5012514;28;20022;-72
2021/06/24 09:26:16;;;;;;;;;;;20.90;94.90;;;;;;5010790;28;20551;-72
2021/06/24 09:28:53;;;;;;;8.32;4.22;;;20.90;94.60;;;;;;5009698;28;20007;-72
2021/06/24 09:31:36;;;;;;;6.50;4.00;;;20.90;94.70;;;;;;5010785;28;20045;-73
2021/06/24 09:34:07;;;;;;;16.42;4.68;;;21.00;94.80;;;;;;5009305;28;20038;-73
2021/06/24 09:36:36;;;;;;;10.07;4.75;;;21.10;94.70;;;;;;5010737;28;20037;-72
2021/06/24 09:39:04;;;;;;;15.18;6.78;;;21.20;94.50;;;;;;5012363;28;20041;-71
2021/06/24 09:41:30;;;;;;;10.02;4.57;;;21.20;94.10;;;;;;5010462;28;20091;-72
2021/06/24 09:43:56;;;;;;;10.95;4.63;;;21.30;93.70;;;;;;5010547;28;20034;-72
2021/06/24 09:46:23;;;;;;;14.82;4.32;;;21.30;93.20;;;;;;5010475;28;20045;-72
2021/06/24 09:49:02;;;;;;;11.13;5.57;;;21.20;93.20;;;;;;5010071;28;20078;-71
2021/06/24 09:51:33;;;;;;;9.02;5.32;;;21.30;93.30;;;;;;5010301;28;20042;-71
2021/06/24 09:54:00;;;;;;;7.18;3.95;;;21.40;93.10;;;;;;5011739;28;20036;-73
2021/06/24 09:56:40;;;;;;;8.88;3.85;;;21.40;93.10;;;;;;5010332;28;20084;-72
2021/06/24 09:59:07;;;;;;;9.07;3.78;;;21.50;92.70;;;;;;5010142;28;20033;-72
2021/06/24 10:01:40;;;;;;;11.50;3.75;;;21.70;92.70;;;;;;5010170;28;20046;-70
2021/06/24 10:04:28;;;;;;;12.52;4.13;;;21.90;92.10;;;;;;5009973;28;20037;-73
2021/06/24 10:06:56;;;;;;;10.40;4.60;;;22.10;91.80;;;;;;5009979;28;20109;-71
2021/06/24 10:09:24;;;;;;;10.55;4.28;;;22.20;91.40;;;;;;4992390;28;20464;-70
2021/06/24 10:11:50;;;;;;;8.25;2.88;;;22.30;91.50;;;;;;4993647;28;20030;-70
2021/06/24 10:14:16;;;;;;;11.10;3.92;;;22.40;91.20;;;;;;5009769;28;20057;-71
2021/06/24 10:16:51;;;;;;;13.82;5.53;;;22.50;91.10;;;;;;5009834;28;20040;-71
2021/06/24 10:19:26;;;;;;;10.52;4.40;;;22.50;90.50;;;;;;5009558;28;20037;-70
2021/06/24 10:22:03;;;;;;;10.50;3.30;;;22.50;90.40;;;;;;5009849;28;20045;-71
2021/06/24 10:24:38;;;;;;;10.43;3.90;;;22.50;90.60;;;;;;5009684;28;20369;-71
2021/06/24 10:27:08;;;;;;;9.07;3.13;;;22.60;90.20;;;;;;5009739;28;20057;-71
2021/06/24 10:29:49;;;;;;;7.47;3.35;;;22.60;90.10;;;;;;5010920;28;20077;-72
2021/06/24 10:32:24;;;;;;;14.27;4.43;;;22.60;89.90;;;;;;5009577;28;20435;-71
2021/06/24 10:34:52;;;;;;;15.10;6.10;;;22.50;89.70;;;;;;5009353;28;20045;-71
2021/06/24 10:37:22;;;;;;;14.73;5.40;;;22.60;90.30;;;;;;5009559;28;20165;-72
2021/06/24 10:39:48;;;;;;;7.78;3.40;;;22.80;90.40;;;;;;5009000;28;20076;-72
2021/06/24 10:42:15;;;;;;;8.77;3.28;;;22.90;90.20;;;;;;5009749;28;20099;-72
2021/06/24 10:44:56;;;;;;;20.15;8.93;;;23.00;89.40;;;;;;5010978;28;20121;-72
2021/06/24 10:47:34;;;;;;;10.70;3.72;;;23.10;89.30;;;;;;5009485;28;20053;-72
2021/06/24 10:50:37;;;;;;;8.68;3.00;;;23.20;87.80;;;;;;5009022;28;20065;-71
2021/06/24 10:53:02;;;;;;;5.07;3.08;;;23.10;88.60;;;;;;4929711;28;20111;-70
2021/06/24 10:55:31;;;;;;;11.95;3.60;;;23.20;88.30;;;;;;4993231;28;20495;-70
2021/06/24 10:57:58;;;;;;;10.75;4.57;;;23.30;89.40;;;;;;5009015;28;20030;-73
2021/06/24 11:00:42;;;;;;;8.32;4.05;;;23.30;88.20;;;;;;5009456;28;20096;-72
2021/06/24 11:03:09;;;;;;;6.38;3.50;;;23.30;87.80;;;;;;5009360;28;20030;-72
2021/06/24 11:05:43;;;;;;;11.02;3.70;;;23.30;87.40;;;;;;5010706;28;20452;-71
2021/06/24 11:08:20;;;;;;;11.80;2.75;;;23.30;86.90;;;;;;5009167;28;20096;-73
2021/06/24 11:11:28;;;;;;;8.32;3.33;;;23.10;86.50;;;;;;5009150;28;20044;-73
2021/06/24 11:13:54;;;;;;;5.18;2.90;;;23.00;87.20;;;;;;4965246;28;20033;-71
2021/06/24 11:16:25;;;;;;;5.65;2.80;;;23.10;87.90;;;;;;5008533;28;20034;-70
2021/06/24 11:18:58;;;;;;;6.65;2.90;;;23.20;87.30;;;;;;5009197;28;20038;-72
2021/06/24 11:21:30;;;;;;;11.18;3.78;;;23.30;87.10;;;;;;5009632;28;20162;-70
2021/06/24 11:24:00;;;;;;;13.68;3.15;;;23.30;88.20;;;;;;5010609;28;20546;-70
2021/06/24 11:26:26;;;;;;;8.75;3.55;;;23.30;86.60;;;;;;5008700;28;20136;-70
2021/06/24 11:29:01;;;;;;;6.63;3.00;;;23.20;86.80;;;;;;5009053;28;20050;-72
2021/06/24 11:31:32;;;;;;;8.88;3.58;;;23.20;87.50;;;;;;5009180;28;20042;-71
2021/06/24 11:34:09;;;;;;;9.70;3.40;;;23.40;85.90;;;;;;5008731;28;20057;-70
2021/06/24 11:36:35;;;;;;;6.70;3.20;;;23.50;85.40;;;;;;5009380;28;20072;-71
2021/06/24 11:39:01;;;;;;;9.90;3.28;;;23.80;85.80;;;;;;5010395;28;20033;-71
2021/06/24 11:41:26;;;;;;;9.60;3.85;;;24.00;85.00;;;;;;5008990;28;20482;-70
2021/06/24 11:43:58;;;;;;;9.15;3.13;;;24.10;84.00;;;;;;4991393;28;20123;-71
2021/06/24 11:46:26;;;;;;;5.63;3.40;;;24.20;84.10;;;;;;5008677;28;20489;-71
2021/06/24 11:49:05;;;;;;;6.78;2.97;;;24.10;83.10;;;;;;5008183;28;20041;-70
2021/06/24 12:05:09;;;;;;;13.60;8.23;;;23.50;83.50;;;;;;5012284;28;20388;-70
2021/06/24 12:07:36;;;;;;;8.50;3.90;;;23.60;83.30;;;;;;5012077;28;20037;-71
2021/06/24 12:10:04;;;;;;;5.30;3.00;;;23.30;83.40;;;;;;4994120;28;20026;-71
2021/06/24 12:12:32;;;;;;;6.63;3.30;;;23.20;83.80;;;;;;5011918;28;20022;-72
2021/06/24 12:15:02;;;;;;;8.15;3.70;;;23.10;83.70;;;;;;5013633;28;20084;-72
2021/06/24 12:17:36;;;;;;;6.72;3.40;;;23.00;84.00;;;;;;5011576;28;20038;-71
2021/06/24 12:20:04;;;;;;;6.32;3.42;;;23.00;84.60;;;;;;5012207;28;20057;-70
2021/06/24 12:22:39;;;;;;;11.38;3.60;;;23.10;84.80;;;;;;4994119;28;20044;-71
2021/06/24 12:25:14;;;;;;;8.73;3.22;;;23.10;84.60;;;;;;5011941;28;20095;-71
2021/06/24 12:27:46;;;;;;;6.30;3.63;;;23.20;85.10;;;;;;4994378;28;20040;-73
2021/06/24 12:30:19;;;;;;;5.78;3.33;;;23.20;84.40;;;;;;5011873;28;20034;-72
2021/06/24 12:32:45;;;;;;;10.82;3.80;;;23.20;84.40;;;;;;5013399;28;20069;-71
2021/06/24 12:35:12;;;;;;;7.03;3.65;;;22.90;84.00;;;;;;4994745;28;20061;-72
2021/06/24 12:37:42;;;;;;;8.35;2.88;;;22.90;85.10;;;;;;5011983;28;20042;-73
2021/06/24 12:40:12;;;;;;;9.80;4.82;;;22.90;84.90;;;;;;5011882;28;20045;-71
2021/06/24 12:42:48;;;;;;;5.82;3.85;;;22.90;85.00;;;;;;5011499;28;20037;-71
2021/06/24 12:45:15;;;;;;;8.77;3.65;;;23.00;85.10;;;;;;5011066;28;20029;-71
2021/06/24 12:47:46;;;;;;;8.23;4.00;;;23.00;85.50;;;;;;5012776;28;20024;-71
2021/06/24 12:50:16;;;;;;;8.90;3.58;;;23.00;85.80;;;;;;5011161;28;20042;-73
2021/06/24 12:53:05;;;;;;;10.50;3.70;;;23.00;85.30;;;;;;5011327;28;20123;-72
2021/06/24 12:55:40;;;;;;;7.32;3.25;;;23.00;85.60;;;;;;4993918;28;20042;-71
2021/06/24 12:58:14;;;;;;;24.67;6.68;;;23.00;85.00;;;;;;5011356;28;20065;-70
2021/06/24 13:00:51;;;;;;;7.53;3.38;;;23.00;84.90;;;;;;4993886;28;20472;-71